Terminal Aerodrome Forecast
Issued by NWS

Home | Current Version | Previous Version | Text Only | Print | Product List | Glossary Off
Versions: 1 2 3 4 5 6 7 8 9 10 11 12 13 14 15 16 17 18 19 20 21 22 23 24

477
FTUS43 KABR 282340
TAFATY
TAF
KATY 282340Z 2900/2924 01006KT P6SM VCSH OVC070
     FM290200 VRB04KT P6SM SCT070
     FM291400 29012G20KT P6SM SCT150=

USA.gov is the U.S. government's official web portal to all federal, state and local government web resources and services.